createdAt,value
2023-05-04T00:02:06.749Z,100682.97
2023-05-04T00:04:53.148Z,100673.91
2023-05-04T00:07:38.523Z,100692.09
2023-05-04T00:10:22.617Z,100706.38
2023-05-04T00:13:06.928Z,100681.41
2023-05-04T00:15:50.978Z,100722.78
2023-05-04T00:18:34.858Z,100677.88
2023-05-04T00:21:18.608Z,100659.94
2023-05-04T00:24:03.866Z,100675.19
2023-05-04T00:26:47.627Z,100649.81
2023-05-04T00:29:31.734Z,100613.03
2023-05-04T00:32:15.568Z,100647.84
2023-05-04T00:35:00.773Z,100678.38
2023-05-04T00:37:46.085Z,100656.28
2023-05-04T00:40:31.509Z,100650.25
2023-05-04T00:43:15.306Z,100657.84
2023-05-04T00:45:59.171Z,100661.34
2023-05-04T00:48:43.972Z,100667.78
2023-05-04T00:51:30.092Z,100565.91
2023-05-04T00:54:15.676Z,100657.06
2023-05-04T00:57:02.203Z,100644.03
2023-05-04T00:59:47.859Z,100644.53
2023-05-04T01:02:31.827Z,100631.66
2023-05-04T01:05:15.728Z,100634.59
2023-05-04T01:08:05.433Z,100634.97
2023-05-04T01:10:55.771Z,100638.94
2023-05-04T01:13:41.900Z,100628.59
2023-05-04T01:16:25.805Z,100612.78
2023-05-04T01:19:09.708Z,100615.16
2023-05-04T01:21:54.970Z,100615.59
2023-05-04T01:24:39.261Z,100599.88
2023-05-04T01:27:27.634Z,100615.91
2023-05-04T01:30:20.239Z,100619.28
2023-05-04T01:33:05.741Z,100642.31
2023-05-04T01:35:50.915Z,100641.94
2023-05-04T01:38:36.148Z,100661.94
2023-05-04T01:41:19.997Z,100663.00
2023-05-04T01:44:04.316Z,100636.53
2023-05-04T01:46:48.260Z,100669.50
2023-05-04T01:49:32.573Z,100673.38
2023-05-04T01:52:16.419Z,100655.91
2023-05-04T01:55:02.747Z,100654.66
2023-05-04T01:57:46.730Z,100627.69
2023-05-04T02:00:30.824Z,100638.84
2023-05-04T02:03:17.763Z,100627.38
2023-05-04T02:06:01.722Z,100618.28
2023-05-04T02:08:46.325Z,100609.56
2023-05-04T02:11:31.728Z,100599.22
2023-05-04T02:14:15.352Z,100595.81
2023-05-04T02:16:59.288Z,100595.53
2023-05-04T02:19:43.104Z,100598.16
2023-05-04T02:22:27.101Z,100590.47
2023-05-04T02:25:11.478Z,100595.19
2023-05-04T02:27:56.965Z,100582.44
2023-05-04T02:30:42.542Z,100586.78
2023-05-04T02:33:26.447Z,100576.03
2023-05-04T02:36:10.704Z,100593.19
2023-05-04T02:38:56.110Z,100613.25
2023-05-04T02:41:40.007Z,100602.34
2023-05-04T02:44:25.316Z,100615.28
2023-05-04T02:47:09.654Z,100612.22
2023-05-04T02:49:53.551Z,100622.16
2023-05-04T02:52:37.372Z,100637.66
2023-05-04T02:55:21.293Z,100642.41
2023-05-04T02:58:05.023Z,100671.81
2023-05-04T03:00:55.483Z,100669.63
2023-05-04T03:03:39.292Z,100665.69
2023-05-04T03:06:23.173Z,100664.03
2023-05-04T03:09:07.103Z,100656.53
2023-05-04T03:11:51.038Z,100662.53
2023-05-04T03:14:35.007Z,100675.94
2023-05-04T03:17:20.258Z,100684.75
2023-05-04T03:20:04.605Z,100685.75
2023-05-04T03:22:50.126Z,100707.66
2023-05-04T03:25:34.520Z,100700.16
2023-05-04T03:28:18.961Z,100704.59
2023-05-04T03:31:03.312Z,100692.28
2023-05-04T03:33:48.653Z,100715.13
2023-05-04T03:36:32.831Z,100712.19
2023-05-04T03:39:17.178Z,100714.84
2023-05-04T03:42:02.777Z,100705.81
2023-05-04T03:44:46.649Z,100710.19
2023-05-04T03:47:30.575Z,100708.69
2023-05-04T03:50:16.180Z,100695.78
2023-05-04T03:53:00.079Z,100704.16
2023-05-04T03:55:45.290Z,100709.34
2023-05-04T03:58:29.247Z,100727.28
2023-05-04T04:01:16.172Z,100740.38
2023-05-04T04:04:01.164Z,100744.69
2023-05-04T04:06:46.630Z,100744.53
2023-05-04T04:09:30.611Z,100750.66
2023-05-04T04:12:16.201Z,100760.53
2023-05-04T04:15:00.143Z,100760.13
2023-05-04T04:17:44.215Z,100758.41
2023-05-04T04:20:27.981Z,100761.78
2023-05-04T04:23:13.357Z,100741.09
2023-05-04T04:25:57.324Z,100753.16
2023-05-04T04:28:41.465Z,100744.84
2023-05-04T04:31:25.390Z,100727.31
2023-05-04T04:34:09.370Z,100737.00
2023-05-04T04:36:53.232Z,100737.69
2023-05-04T04:39:38.514Z,100711.38
2023-05-04T04:42:22.502Z,100716.59
2023-05-04T04:45:07.662Z,100708.88
2023-05-04T04:47:52.347Z,100689.53
2023-05-04T04:50:39.774Z,100749.06
2023-05-04T04:53:23.742Z,100752.53
2023-05-04T04:56:09.910Z,100763.19
2023-05-04T04:58:53.758Z,100757.53
2023-05-04T05:01:37.702Z,100754.81
2023-05-04T05:04:22.561Z,100766.16
2023-05-04T05:07:08.488Z,100747.16
2023-05-04T05:09:52.303Z,100741.94
2023-05-04T05:12:37.619Z,100726.66
2023-05-04T05:15:21.511Z,100664.38
2023-05-04T05:18:05.746Z,100679.88
2023-05-04T05:20:49.774Z,100680.59
2023-05-04T05:23:33.588Z,100675.63
2023-05-04T05:26:17.474Z,100674.41
2023-05-04T05:29:02.784Z,100673.09
2023-05-04T05:31:46.823Z,100670.78
2023-05-04T05:34:30.717Z,100656.84
2023-05-04T05:37:14.690Z,100649.56
2023-05-04T05:39:58.573Z,100658.94
2023-05-04T05:42:42.921Z,100621.91
2023-05-04T05:45:28.150Z,100647.16
2023-05-04T05:48:12.084Z,100652.19
2023-05-04T05:50:56.022Z,100591.13
2023-05-04T05:53:39.955Z,100659.00
2023-05-04T05:56:23.872Z,100664.56
2023-05-04T05:59:07.798Z,100654.09
2023-05-04T06:01:53.107Z,100661.63
2023-05-04T06:04:37.138Z,100683.38
2023-05-04T06:07:22.050Z,100681.78
2023-05-04T06:10:06.819Z,100674.28
2023-05-04T06:12:51.213Z,100663.97
2023-05-04T06:15:36.718Z,100649.09
2023-05-04T06:18:22.344Z,100620.22
2023-05-04T06:21:06.315Z,100630.13
2023-05-04T06:23:50.107Z,100616.72
2023-05-04T06:26:34.154Z,100600.84
2023-05-04T06:29:18.045Z,100610.47
2023-05-04T06:32:03.403Z,100595.44
2023-05-04T06:34:49.094Z,100595.44
2023-05-04T06:37:33.184Z,100582.38
2023-05-04T06:40:17.150Z,100597.94
2023-05-04T06:43:01.383Z,100598.09
2023-05-04T06:45:45.894Z,100590.84
2023-05-04T06:48:29.987Z,100585.03
2023-05-04T06:51:16.265Z,100587.91
2023-05-04T06:54:01.985Z,100588.63
2023-05-04T06:56:46.356Z,100592.09
2023-05-04T06:59:30.417Z,100604.38
2023-05-04T07:02:14.387Z,100602.09
2023-05-04T07:04:59.136Z,100578.25
2023-05-04T07:07:44.723Z,100617.88
2023-05-04T07:10:28.997Z,100636.59
2023-05-04T07:13:13.544Z,100638.66
2023-05-04T07:15:57.664Z,100646.75
2023-05-04T07:18:41.645Z,100642.16
2023-05-04T07:21:28.927Z,100649.44
2023-05-04T07:24:14.838Z,100647.72
2023-05-04T07:26:58.785Z,100633.66
2023-05-04T07:29:44.287Z,100611.97
2023-05-04T07:32:28.239Z,100606.34
2023-05-04T07:35:12.270Z,100594.75
2023-05-04T07:37:56.337Z,100606.94
2023-05-04T07:40:41.767Z,100591.88
2023-05-04T07:43:26.156Z,100583.44
2023-05-04T07:46:10.476Z,100569.81
2023-05-04T07:48:54.918Z,100579.91
2023-05-04T07:51:39.719Z,100552.00
2023-05-04T07:54:24.150Z,100567.41
2023-05-04T07:57:09.817Z,100572.81
2023-05-04T07:59:56.281Z,100567.59
2023-05-04T08:02:41.018Z,100539.63
2023-05-04T08:05:25.780Z,100511.72
2023-05-04T08:08:10.160Z,100537.91
2023-05-04T08:11:01.982Z,100567.22
2023-05-04T08:13:54.031Z,100537.44
2023-05-04T08:16:39.925Z,100532.28
2023-05-04T08:19:23.968Z,100528.25
2023-05-04T08:22:09.114Z,100527.31
2023-05-04T08:24:53.316Z,100540.66
2023-05-04T08:27:37.679Z,100541.09
2023-05-04T08:30:23.544Z,100535.41
2023-05-04T08:33:08.734Z,100557.09
2023-05-04T08:35:53.083Z,100531.34
2023-05-04T08:38:37.734Z,100548.84
2023-05-04T08:41:22.280Z,100551.75
2023-05-04T08:44:08.643Z,100524.78
2023-05-04T08:46:55.331Z,100548.88
2023-05-04T08:49:39.757Z,100543.19
2023-05-04T08:52:24.760Z,100539.75
2023-05-04T08:55:12.866Z,100536.19
2023-05-04T08:57:57.208Z,100537.53
2023-05-04T09:00:44.330Z,100533.91
2023-05-04T09:03:31.429Z,100542.44
2023-05-04T09:06:16.260Z,100549.66
2023-05-04T09:09:00.167Z,100534.63
2023-05-04T09:11:45.471Z,100527.69
2023-05-04T09:14:34.699Z,100524.72
2023-05-04T09:17:25.783Z,100533.28
2023-05-04T09:20:13.491Z,100531.81
2023-05-04T09:23:07.438Z,100530.97
2023-05-04T09:25:53.417Z,100534.59
2023-05-04T09:28:39.796Z,100492.69
2023-05-04T09:31:24.456Z,100526.63
2023-05-04T09:34:11.180Z,100522.78
2023-05-04T09:37:03.856Z,100520.41
2023-05-04T09:39:52.797Z,100509.88
2023-05-04T09:42:37.310Z,100473.75
2023-05-04T09:45:21.700Z,100503.19
2023-05-04T09:48:17.449Z,100506.97
2023-05-04T09:51:06.286Z,100504.19
2023-05-04T09:53:52.615Z,100507.69
2023-05-04T09:56:42.922Z,100505.75
2023-05-04T09:59:31.724Z,100495.88
2023-05-04T10:02:22.615Z,100506.28
2023-05-04T10:05:09.436Z,100498.22
2023-05-04T10:07:53.972Z,100499.28
2023-05-04T10:10:40.833Z,100492.66
2023-05-04T10:13:25.121Z,100508.75
2023-05-04T10:16:19.512Z,100496.56
2023-05-04T10:19:33.053Z,100507.09
2023-05-04T10:22:39.895Z,100506.50
2023-05-04T10:25:44.457Z,100500.66
2023-05-04T10:28:46.802Z,100495.50
2023-05-04T10:31:39.537Z,100487.59
2023-05-04T10:34:27.790Z,100488.50
2023-05-04T10:37:18.332Z,100486.47
2023-05-04T10:40:02.281Z,100492.69
2023-05-04T10:42:47.498Z,100485.63
2023-05-04T10:45:40.901Z,100492.41
2023-05-04T10:48:34.867Z,100497.03
2023-05-04T10:51:20.860Z,100454.31
2023-05-04T10:54:05.535Z,100491.63
2023-05-04T10:56:49.584Z,100490.22
2023-05-04T10:59:36.014Z,100487.78
2023-05-04T11:02:25.522Z,100469.38
2023-05-04T11:05:16.098Z,100484.31
2023-05-04T11:08:00.546Z,100500.22
2023-05-04T11:10:45.070Z,100496.16
2023-05-04T11:13:31.160Z,100502.91
2023-05-04T11:16:15.914Z,100489.81
2023-05-04T11:19:12.547Z,100501.97
2023-05-04T11:21:56.744Z,100503.00
2023-05-04T11:24:44.148Z,100498.31
2023-05-04T11:27:29.552Z,100495.72
2023-05-04T11:30:14.224Z,100490.06
2023-05-04T11:33:00.446Z,100486.16
2023-05-04T11:35:46.740Z,100489.28
2023-05-04T11:38:31.392Z,100495.66
2023-05-04T11:41:15.508Z,100498.94
2023-05-04T11:44:02.156Z,100492.09
2023-05-04T11:46:47.955Z,100477.78
2023-05-04T11:49:32.600Z,100481.38
2023-05-04T11:52:18.008Z,100482.13
2023-05-04T11:55:03.144Z,100481.25
2023-05-04T11:57:57.890Z,100485.56
2023-05-04T12:00:44.152Z,100461.72
2023-05-04T12:03:35.867Z,100481.91
2023-05-04T12:06:33.717Z,100473.75
2023-05-04T12:09:19.327Z,100467.91
2023-05-04T12:12:03.297Z,100472.03
2023-05-04T12:14:52.058Z,100473.19
2023-05-04T12:17:43.661Z,100467.72
2023-05-04T12:20:29.439Z,100473.22
2023-05-04T12:23:13.928Z,100467.19
2023-05-04T12:25:59.425Z,100473.16
2023-05-04T12:28:44.461Z,100470.56
2023-05-04T12:31:28.939Z,100477.69
2023-05-04T12:34:12.855Z,100474.41
2023-05-04T12:36:56.744Z,100467.50
2023-05-04T12:39:40.726Z,100442.16
2023-05-04T12:42:26.209Z,100464.63
2023-05-04T12:45:11.278Z,100467.34
2023-05-04T12:47:55.234Z,100450.03
2023-05-04T12:50:39.205Z,100429.50
2023-05-04T12:53:25.965Z,100434.06
2023-05-04T12:56:10.044Z,100405.44
2023-05-04T12:58:55.553Z,100422.75
2023-05-04T13:01:41.642Z,100442.38
2023-05-04T13:04:26.183Z,100443.13
2023-05-04T13:07:10.147Z,100447.72
2023-05-04T13:09:53.992Z,100440.69
2023-05-04T13:12:38.678Z,100442.16
2023-05-04T13:15:24.588Z,100447.94
2023-05-04T13:18:08.619Z,100448.31
2023-05-04T13:20:53.989Z,100452.03
2023-05-04T13:23:38.143Z,100449.50
2023-05-04T13:26:22.193Z,100453.63
2023-05-04T13:29:06.376Z,100443.91
2023-05-04T13:31:52.009Z,100446.75
2023-05-04T13:34:35.963Z,100443.06
2023-05-04T13:37:19.855Z,100428.31
2023-05-04T13:40:04.103Z,100440.34
2023-05-04T13:42:48.458Z,100453.56
2023-05-04T13:45:32.850Z,100439.81
2023-05-04T13:48:18.399Z,100442.53
2023-05-04T13:51:04.066Z,100453.09
2023-05-04T13:53:48.041Z,100451.84
2023-05-04T13:56:32.022Z,100444.69
2023-05-04T13:59:16.090Z,100434.09
2023-05-04T14:02:00.359Z,100419.66
2023-05-04T14:04:45.737Z,100414.06
2023-05-04T14:07:30.108Z,100406.41
2023-05-04T14:10:14.183Z,100409.69
2023-05-04T14:12:58.441Z,100416.97
2023-05-04T14:15:42.838Z,100412.84
2023-05-04T14:18:28.138Z,100428.88
2023-05-04T14:21:13.566Z,100429.34
2023-05-04T14:23:57.626Z,100430.88
2023-05-04T14:26:41.634Z,100437.25
2023-05-04T14:29:25.702Z,100435.81
2023-05-04T14:32:09.918Z,100299.44
2023-05-04T14:34:54.082Z,100433.84
2023-05-04T14:37:40.935Z,100427.06
2023-05-04T14:40:25.145Z,100436.22
2023-05-04T14:43:09.181Z,100439.75
2023-05-04T14:45:53.481Z,100444.44
2023-05-04T14:48:40.240Z,100427.31
2023-05-04T14:51:26.494Z,100439.56
2023-05-04T14:54:11.841Z,100430.03
2023-05-04T14:56:55.913Z,100428.53
2023-05-04T14:59:40.148Z,100438.78
2023-05-04T15:02:26.999Z,100434.22
2023-05-04T15:05:12.880Z,100448.13
2023-05-04T15:07:56.856Z,100444.72
2023-05-04T15:10:42.221Z,100445.22
2023-05-04T15:13:26.474Z,100454.19
2023-05-04T15:16:10.411Z,100445.19
2023-05-04T15:18:54.586Z,100448.41
2023-05-04T15:21:38.700Z,100443.16
2023-05-04T15:24:22.708Z,100443.25
2023-05-04T15:27:09.035Z,100446.94
2023-05-04T15:29:53.027Z,100445.72
2023-05-04T15:32:37.020Z,100432.84
2023-05-04T15:35:21.311Z,100426.13
2023-05-04T15:38:05.521Z,100430.38
2023-05-04T15:40:49.528Z,100426.34
2023-05-04T15:43:35.262Z,100420.50
2023-05-04T15:46:19.628Z,100415.38
2023-05-04T15:49:03.686Z,100434.16
2023-05-04T15:51:47.801Z,100311.66
2023-05-04T15:54:31.892Z,100411.75
2023-05-04T15:57:16.343Z,100419.28
2023-05-04T16:00:02.950Z,100421.97
2023-05-04T16:02:52.241Z,100395.00
2023-05-04T16:05:37.083Z,100395.34
2023-05-04T16:08:23.453Z,100428.16
2023-05-04T16:11:08.157Z,100419.63
2023-05-04T16:13:52.318Z,100417.81
2023-05-04T16:16:37.841Z,100425.03
2023-05-04T16:19:22.785Z,100428.72
2023-05-04T16:22:06.971Z,100422.19
2023-05-04T16:24:51.287Z,100441.59
2023-05-04T16:27:35.563Z,100431.06
2023-05-04T16:30:19.950Z,100443.81
2023-05-04T16:33:05.775Z,100442.69
2023-05-04T16:35:49.964Z,100444.97
2023-05-04T16:38:36.313Z,100444.53
2023-05-04T16:41:21.980Z,100444.53
2023-05-04T16:44:10.190Z,100448.59
2023-05-04T16:46:54.865Z,100453.66
2023-05-04T16:49:40.267Z,100450.94
2023-05-04T16:52:24.379Z,100452.44
2023-05-04T16:55:13.090Z,100458.06
2023-05-04T16:57:58.034Z,100467.94
2023-05-04T17:00:42.905Z,100460.16
2023-05-04T17:03:27.492Z,100443.84
2023-05-04T17:06:13.058Z,100470.16
2023-05-04T17:09:01.141Z,100436.63
2023-05-04T17:11:45.706Z,100465.34
2023-05-04T17:14:29.880Z,100476.88
2023-05-04T17:17:13.967Z,100479.41
2023-05-04T17:20:01.716Z,100493.38
2023-05-04T17:22:51.055Z,100497.47
2023-05-04T17:25:37.102Z,100504.34
2023-05-04T17:28:21.365Z,100507.66
2023-05-04T17:31:05.450Z,100502.91
2023-05-04T17:33:50.821Z,100508.63
2023-05-04T17:36:39.911Z,100481.47
2023-05-04T17:39:28.171Z,100509.22
2023-05-04T17:42:12.789Z,100481.84
2023-05-04T17:45:02.642Z,100490.97
2023-05-04T17:47:55.272Z,100479.41
2023-05-04T17:50:40.518Z,100522.09
2023-05-04T17:53:25.136Z,100526.75
2023-05-04T17:56:13.656Z,100533.47
2023-05-04T17:58:57.908Z,100534.38
2023-05-04T18:01:42.250Z,100535.63
2023-05-04T18:04:26.540Z,100526.66
2023-05-04T18:07:13.793Z,100508.63
2023-05-04T18:09:58.090Z,100521.25
2023-05-04T18:12:46.633Z,100529.47
2023-05-04T18:15:33.951Z,100561.03
2023-05-04T18:18:20.544Z,100540.97
2023-05-04T18:21:08.601Z,100541.84
2023-05-04T18:23:54.570Z,100544.22
2023-05-04T18:26:38.911Z,100547.03
2023-05-04T18:29:36.219Z,100554.03
2023-05-04T18:32:20.261Z,100580.13
2023-05-04T18:35:10.593Z,100590.72
2023-05-04T18:37:54.763Z,100595.78
2023-05-04T18:40:38.924Z,100565.84
2023-05-04T18:43:24.019Z,100594.22
2023-05-04T18:46:09.958Z,100596.97
2023-05-04T18:49:09.388Z,100559.50
2023-05-04T18:51:57.172Z,100605.69
2023-05-04T18:54:45.565Z,100596.25
2023-05-04T18:57:30.201Z,100598.53
2023-05-04T19:00:15.397Z,100602.38
2023-05-04T19:03:01.924Z,100596.09
2023-05-04T19:05:54.700Z,100584.31
2023-05-04T19:08:49.410Z,100589.19
2023-05-04T19:11:34.652Z,100601.72
2023-05-04T19:14:18.833Z,100608.53
2023-05-04T19:17:04.753Z,100604.97
2023-05-04T19:19:50.651Z,100601.94
2023-05-04T19:22:34.989Z,100580.81
2023-05-04T19:25:33.334Z,100606.84
2023-05-04T19:28:21.101Z,100608.69
2023-05-04T19:31:06.860Z,100593.97
2023-05-04T19:33:52.595Z,100605.34
2023-05-04T19:36:37.994Z,100597.00
2023-05-04T19:39:25.245Z,100592.34
2023-05-04T19:42:10.984Z,100600.56
2023-05-04T19:44:55.208Z,100592.56
2023-05-04T19:47:42.330Z,100591.34
2023-05-04T19:50:26.651Z,100601.75
2023-05-04T19:53:14.993Z,100588.25
2023-05-04T19:56:00.909Z,100589.41
2023-05-04T19:58:47.914Z,100589.13
2023-05-04T20:01:31.971Z,100592.34
2023-05-04T20:04:16.367Z,100580.25
2023-05-04T20:07:00.584Z,100577.44
2023-05-04T20:09:46.052Z,100588.56
2023-05-04T20:12:32.734Z,100580.56
2023-05-04T20:15:17.798Z,100584.78
2023-05-04T20:18:01.944Z,100587.13
2023-05-04T20:20:48.999Z,100593.50
2023-05-04T20:23:41.036Z,100596.25
2023-05-04T20:26:31.330Z,100590.41
2023-05-04T20:29:15.399Z,100582.31
2023-05-04T20:32:01.700Z,100584.31
2023-05-04T20:34:51.565Z,100559.72
2023-05-04T20:37:44.492Z,100576.97
2023-05-04T20:40:42.423Z,100583.66
2023-05-04T20:43:36.819Z,100584.59
2023-05-04T20:46:23.763Z,100585.78
2023-05-04T20:49:09.293Z,100550.81
2023-05-04T20:51:53.342Z,100578.22
2023-05-04T20:54:39.145Z,100588.50
2023-05-04T20:57:28.369Z,100546.16
2023-05-04T21:00:16.474Z,100584.94
2023-05-04T21:03:00.691Z,100585.09
2023-05-04T21:05:44.845Z,100582.69
2023-05-04T21:08:28.983Z,100593.09
2023-05-04T21:11:13.034Z,100593.44
2023-05-04T21:13:57.232Z,100597.69
2023-05-04T21:16:48.662Z,100596.69
2023-05-04T21:19:33.074Z,100585.13
2023-05-04T21:22:19.344Z,100597.03
2023-05-04T21:25:04.322Z,100594.56
2023-05-04T21:27:48.482Z,100603.19
2023-05-04T21:30:32.601Z,100591.81
2023-05-04T21:33:18.172Z,100589.50
2023-05-04T21:36:12.277Z,100600.88
2023-05-04T21:38:57.679Z,100599.75
2023-05-04T21:41:41.830Z,100590.53
2023-05-04T21:44:29.041Z,100585.03
2023-05-04T21:47:17.195Z,100562.84
2023-05-04T21:50:05.348Z,100581.56
2023-05-04T21:52:49.626Z,100576.06
2023-05-04T21:55:33.647Z,100583.75
2023-05-04T21:58:17.971Z,100592.88
2023-05-04T22:01:02.013Z,100578.16
2023-05-04T22:03:48.104Z,100590.13
2023-05-04T22:06:33.611Z,100588.47
2023-05-04T22:09:17.805Z,100578.56
2023-05-04T22:12:02.466Z,100582.78
2023-05-04T22:14:46.575Z,100583.34
2023-05-04T22:17:30.713Z,100563.28
2023-05-04T22:20:15.027Z,100556.19
2023-05-04T22:23:00.457Z,100551.03
2023-05-04T22:25:44.518Z,100545.03
2023-05-04T22:28:28.547Z,100549.56
2023-05-04T22:31:12.895Z,100532.34
2023-05-04T22:33:56.978Z,100539.06
2023-05-04T22:36:43.827Z,100517.16
2023-05-04T22:39:29.437Z,100519.72
2023-05-04T22:42:13.411Z,100513.50
2023-05-04T22:44:57.544Z,100512.34
2023-05-04T22:47:41.600Z,100537.81
2023-05-04T22:50:25.667Z,100541.03
2023-05-04T22:53:09.809Z,100538.91
2023-05-04T22:55:54.940Z,100532.41
2023-05-04T22:58:38.726Z,100530.34
2023-05-04T23:01:22.594Z,100535.63
2023-05-04T23:04:07.871Z,100531.38
2023-05-04T23:06:51.638Z,100514.69
2023-05-04T23:09:42.669Z,100518.53
2023-05-04T23:12:28.433Z,100522.38
2023-05-04T23:15:12.702Z,100531.47
2023-05-04T23:17:56.478Z,100524.84
2023-05-04T23:20:40.334Z,100514.66
2023-05-04T23:23:24.056Z,100523.19
2023-05-04T23:26:07.750Z,100523.44
2023-05-04T23:28:52.844Z,100406.28
2023-05-04T23:31:36.619Z,100519.34
2023-05-04T23:34:20.615Z,100519.78
2023-05-04T23:37:04.381Z,100526.06
2023-05-04T23:39:48.250Z,100522.19
2023-05-04T23:42:31.882Z,100520.00
2023-05-04T23:45:17.293Z,100523.78
2023-05-04T23:48:01.365Z,100525.50
2023-05-04T23:50:53.347Z,100517.66
2023-05-04T23:53:37.100Z,100520.50
2023-05-04T23:56:20.861Z,100519.50
2023-05-04T23:59:05.022Z,100520.78
